| time (UTC) | temp C | wind direction | speed KPH | gust KPH | rain 1hr cm | rain 24hr cm | rain mn cm | humidity % | barometer mb |
| 20260902051518 | 16 | 128 | 8.0 | 8.0 | 0.00 | 0.00 | 0.00 | 81 | 1014.8 |
| 20260902050019 | 16 | 117 | 6.4 | 8.0 | 0.00 | 0.00 | 0.00 | 80 | 1014.8 |
| 20260902044518 | 16 | 111 | 6.4 | 8.0 | 0.00 | 0.00 | 0.00 | 80 | 1014.8 |
| 20260902043018 | 16 | 111 | 4.8 | 6.4 | 0.00 | 0.00 | 0.00 | 79 | 1014.8 |
| 20260902041520 | 16 | 110 | 4.8 | 6.4 | 0.00 | 0.00 | 0.00 | 79 | 1014.8 |
| 20260902040018 | 16 | 110 | 4.8 | 6.4 | 0.00 | 0.00 | 0.00 | 78 | 1014.8 |
| 20260902034519 | 16 | 109 | 6.4 | 8.0 | 0.00 | 0.00 | 0.00 | 78 | 1014.8 |
| 20260902033018 | 16 | 107 | 6.4 | 8.0 | 0.00 | 0.00 | 0.00 | 79 | 1014.8 |
| 20260902031518 | 16 | 104 | 3.2 | 6.4 | 0.00 | 0.00 | 0.00 | 78 | 1014.8 |
| 20260902030018 | 16 | 104 | 4.8 | 6.4 | 0.00 | 0.00 | 0.00 | 77 | 1014.8 |
| 20260902024518 | 16 | 104 | 8.0 | 9.7 | 0.00 | 0.00 | 0.00 | 76 | 1014.8 |
| 20260902023018 | 16 | 104 | 8.0 | 9.7 | 0.00 | 0.00 | 0.00 | 75 | 1014.8 |
| 20260902021518 | 16 | 104 | 8.0 | 9.7 | 0.00 | 0.00 | 0.00 | 74 | 1014.8 |
| 20260902020018 | 17 | 101 | 9.7 | 9.7 | 0.00 | 0.00 | 0.00 | 73 | 1014.8 |
| 20260902014518 | 17 | 97 | 8.0 | 9.7 | 0.00 | 0.00 | 0.00 | 73 | 1014.8 |
| 20260902013018 | 17 | 94 | 8.0 | 9.7 | 0.00 | 0.00 | 0.00 | 72 | 1014.8 |
| 20260902011518 | 17 | 95 | 8.0 | 9.7 | 0.00 | 0.00 | 0.00 | 71 | 1014.8 |
| 20260902010018 | 17 | 95 | 8.0 | 9.7 | 0.00 | 0.00 | 0.00 | 70 | 1014.8 |
| 20260902004519 | 17 | 75 | 6.4 | 8.0 | 0.00 | 0.00 | 0.00 | 69 | 1014.8 |
| 20260902003039 | 17 | 64 | 6.4 | 8.0 | 0.00 | 0.00 | 0.00 | 68 | 1014.8 |
| 20260902001519 | 18 | 54 | 4.8 | 6.4 | 0.00 | 0.00 | 0.00 | 66 | 1014.8 |
| 20260902000018 | 18 | 27 | 6.4 | 8.0 | 0.00 | 0.00 | 0.00 | 66 | 1014.8 |
| 20260901234600 | 18 | 349 | 6.4 | 8.0 | 0.00 | 0.00 | 0.00 | 66 | 1014.8 |
| 20260901233018 | 18 | 335 | 4.8 | 6.4 | 0.00 | 0.00 | 0.00 | 66 | 1014.8 |
| 20260901231518 | 18 | 0.0 | 0.0 | 0.00 | 0.00 | 0.00 | 65 | 1014.8 | |
| 20260901230018 | 18 | 0.0 | 0.0 | 0.00 | 0.00 | 0.00 | 64 | 1014.8 | |
| 20260901224518 | 18 | 0.0 | 0.0 | 0.00 | 0.00 | 0.00 | 62 | 1014.8 | |
| 20260901223018 | 19 | 0.0 | 0.0 | 0.00 | 0.00 | 0.00 | 62 | 1014.8 | |
| 20260901221539 | 19 | 0.0 | 3.2 | 0.00 | 0.00 | 0.00 | 62 | 1014.8 | |
| 20260901220019 | 19 | 313 | 0.0 | 4.8 | 0.00 | 0.00 | 0.00 | 61 | 1014.8 |
| 20260901214518 | 19 | 0.0 | 0.0 | 0.00 | 0.00 | 0.00 | 60 | 1014.8 | |
| 20260901213018 | 19 | 0.0 | 0.0 | 0.00 | 0.00 | 0.00 | 60 | 1014.8 | |
| 20260901211518 | 19 | 0.0 | 0.0 | 0.00 | 0.00 | 0.00 | 59 | 1014.8 | |
| 20260901210018 | 20 | 0.0 | 0.0 | 0.00 | 0.00 | 0.00 | 59 | 1014.8 | |
| 20260901204539 | 20 | 0.0 | 0.0 | 0.00 | 0.00 | 0.00 | 59 | 1014.8 | |
| 20260901203018 | 20 | 0.0 | 0.0 | 0.00 | 0.00 | 0.00 | 59 | 1014.8 | |
| 20260901201518 | 20 | 0.0 | 0.0 | 0.00 | 0.00 | 0.00 | 58 | 1014.8 | |
| 20260901200017 | 20 | 310 | 1.6 | 8.0 | 0.00 | 0.00 | 0.00 | 58 | 1014.8 |
| 20260901194539 | 20 | 0.0 | 0.0 | 0.00 | 0.00 | 0.00 | 58 | 1014.8 | |
| 20260901193018 | 20 | 310 | 0.0 | 6.4 | 0.00 | 0.00 | 0.00 | 58 | 1014.8 |
| 20260901191539 | 20 | 310 | 1.6 | 6.4 | 0.00 | 0.00 | 0.00 | 57 | 1014.8 |
| 20260901190017 | 21 | 309 | 8.0 | 9.7 | 0.00 | 0.00 | 0.00 | 56 | 1014.8 |
| 20260901184518 | 21 | 308 | 8.0 | 11.3 | 0.00 | 0.00 | 0.00 | 55 | 1014.8 |
| 20260901183018 | 21 | 304 | 9.7 | 11.3 | 0.00 | 0.00 | 0.00 | 54 | 1014.8 |
| 20260901181518 | 22 | 300 | 8.0 | 9.7 | 0.00 | 0.00 | 0.00 | 51 | 1014.8 |
| 20260901180020 | 22 | 297 | 9.7 | 12.9 | 0.00 | 0.00 | 0.00 | 49 | 1014.8 |
| 20260901174517 | 23 | 292 | 11.3 | 14.5 | 0.00 | 0.00 | 0.00 | 48 | 1014.8 |
| 20260901173018 | 23 | 291 | 9.7 | 14.5 | 0.00 | 0.00 | 0.00 | 46 | 1014.8 |
| 20260901171518 | 24 | 302 | 6.4 | 11.3 | 0.00 | 0.00 | 0.00 | 45 | 1014.8 |
| 20260901170018 | 25 | 292 | 8.0 | 14.5 | 0.00 | 0.00 | 0.00 | 45 | 1014.8 |
| 20260901164517 | 25 | 290 | 9.7 | 16.1 | 0.00 | 0.00 | 0.00 | 44 | 1014.8 |
| 20260901163018 | 25 | 300 | 6.4 | 9.7 | 0.00 | 0.00 | 0.00 | 44 | 1014.8 |
| 20260901161518 | 25 | 289 | 8.0 | 14.5 | 0.00 | 0.00 | 0.00 | 44 | 1014.8 |
| 20260901160018 | 25 | 295 | 9.7 | 16.1 | 0.00 | 0.00 | 0.00 | 44 | 1014.8 |
| 20260901154518 | 25 | 297 | 11.3 | 19.3 | 0.00 | 0.00 | 0.00 | 43 | 1014.8 |
| 20260901153018 | 25 | 278 | 11.3 | 20.9 | 0.00 | 0.00 | 0.00 | 43 | 1014.8 |
| 20260901151518 | 25 | 282 | 11.3 | 20.9 | 0.00 | 0.00 | 0.00 | 44 | 1014.8 |
| 20260901150039 | 25 | 296 | 12.9 | 20.9 | 0.00 | 0.00 | 0.00 | 43 | 1014.8 |
| 20260901144559 | 26 | 287 | 12.9 | 27.4 | 0.00 | 0.00 | 0.00 | 42 | 1014.8 |
| 20260901143018 | 26 | 281 | 8.0 | 17.7 | 0.00 | 0.00 | 0.00 | 42 | 1014.8 |
| 20260901141518 | 26 | 287 | 11.3 | 19.3 | 0.00 | 0.00 | 0.00 | 42 | 1014.8 |
| 20260901140018 | 26 | 308 | 14.5 | 22.5 | 0.00 | 0.00 | 0.00 | 43 | 1014.8 |
| 20260901134518 | 26 | 293 | 12.9 | 19.3 | 0.00 | 0.00 | 0.00 | 42 | 1014.8 |
| 20260901133018 | 26 | 286 | 8.0 | 14.5 | 0.00 | 0.00 | 0.00 | 42 | 1014.8 |
| 20260901131518 | 26 | 269 | 16.1 | 24.1 | 0.00 | 0.00 | 0.00 | 42 | 1014.8 |
| 20260901130018 | 27 | 277 | 11.3 | 19.3 | 0.00 | 0.00 | 0.00 | 44 | 1015.7 |
| 20260901124518 | 26 | 287 | 14.5 | 24.1 | 0.00 | 0.00 | 0.00 | 45 | 1015.9 |
| 20260901123044 | 25 | 262 | 11.3 | 19.3 | 0.00 | 0.00 | 0.00 | 46 | 1015.9 |
| 20260901121544 | 26 | 270 | 14.5 | 22.5 | 0.00 | 0.00 | 0.00 | 45 | 1015.9 |
| 20260901120024 | 26 | 269 | 12.9 | 22.5 | 0.00 | 0.00 | 0.00 | 48 | 1015.9 |
| 20260901114523 | 25 | 261 | 11.3 | 17.7 | 0.00 | 0.00 | 0.00 | 52 | 1015.9 |
| 20260901113059 | 24 | 287 | 11.3 | 19.3 | 0.00 | 0.00 | 0.00 | 52 | 1015.9 |
| 20260901111520 | 24 | 278 | 9.7 | 16.1 | 0.00 | 0.00 | 0.00 | 53 | 1015.9 |
| 20260901110018 | 25 | 275 | 9.7 | 16.1 | 0.00 | 0.00 | 0.00 | 53 | 1015.9 |
| 20260901104518 | 24 | 270 | 8.0 | 12.9 | 0.00 | 0.00 | 0.00 | 58 | 1015.9 |
| 20260901103038 | 23 | 268 | 8.0 | 12.9 | 0.00 | 0.00 | 0.00 | 56 | 1015.9 |
| 20260901101517 | 24 | 279 | 11.3 | 17.7 | 0.00 | 0.00 | 0.00 | 54 | 1015.9 |
| 20260901100038 | 24 | 256 | 6.4 | 11.3 | 0.00 | 0.00 | 0.00 | 59 | 1015.9 |
| 20260901094538 | 23 | 231 | 8.0 | 11.3 | 0.00 | 0.00 | 0.00 | 60 | 1015.9 |
| 20260901093017 | 23 | 237 | 8.0 | 11.3 | 0.00 | 0.00 | 0.00 | 63 | 1015.9 |
| 20260901091518 | 22 | 252 | 6.4 | 14.5 | 0.00 | 0.00 | 0.00 | 69 | 1015.9 |
| 20260901090018 | 21 | 268 | 6.4 | 9.7 | 0.00 | 0.00 | 0.00 | 73 | 1015.9 |
| 20260901084538 | 20 | 259 | 8.0 | 11.3 | 0.00 | 0.00 | 0.00 | 80 | 1015.9 |
| 20260901083018 | 18 | 264 | 4.8 | 11.3 | 0.00 | 0.00 | 0.00 | 83 | 1015.9 |
| 20260901081517 | 17 | 272 | 4.8 | 9.7 | 0.00 | 0.00 | 0.00 | 84 | 1015.9 |
| 20260901080018 | 17 | 277 | 3.2 | 9.7 | 0.00 | 0.00 | 0.00 | 86 | 1015.9 |
| 20260901074518 | 16 | 286 | 6.4 | 9.7 | 0.00 | 0.00 | 0.00 | 87 | 1015.9 |
| 20260901073038 | 16 | 277 | 3.2 | 9.7 | 0.00 | 0.00 | 0.00 | 88 | 1015.9 |
| 20260901071538 | 15 | 261 | 3.2 | 9.7 | 0.00 | 0.00 | 0.00 | 89 | 1015.9 |
| 20260901070018 | 15 | 248 | 6.4 | 9.7 | 0.00 | 0.00 | 0.00 | 90 | 1015.9 |
| 20260901064518 | 15 | 245 | 3.2 | 9.7 | 0.00 | 0.00 | 0.00 | 91 | 1015.9 |
| 20260901063017 | 14 | 247 | 6.4 | 9.7 | 0.00 | 0.00 | 0.00 | 91 | 1015.9 |
| 20260901061519 | 14 | 238 | 8.0 | 12.9 | 0.00 | 0.00 | 0.00 | 91 | 1015.9 |
| 20260901060038 | 14 | 215 | 9.7 | 12.9 | 0.00 | 0.00 | 0.00 | 92 | 1015.0 |
| 20260901054518 | 13 | 214 | 9.7 | 11.3 | 0.00 | 0.00 | 0.00 | 92 | 1014.8 |
| 20260901053018 | 13 | 221 | 9.7 | 11.3 | 0.00 | 0.00 | 0.00 | 92 | 1014.8 |